TIST/STT METAR and TAF weather

Enter ICAO airport designator
Station Type Date Time Source
TIST METAR 2019/07/17 17:53 UTC NOAA

TIST 171753Z 12015KT 10SM FEW030 31/23 A3004 RMK AO2 SLP173 60000 T03110228 10322 20283 58011


Station Type Date Time Source
TIST Decoded METAR 2019/07/17 17:53 UTC NOAA

Charlotte Amalie St. Thomas, Cyril E. King Airport, Virgin Islands (TIST) 18-20N 064-59W
Jul 17, 2019 - 01:53 PM EDT / 2019.07.17 1753 UTC
Wind: from the ESE (120 degrees) at 17 MPH (15 KT):0
Visibility: 10 mile(s):0
Sky conditions: mostly clear
Temperature: 88.0 F (31.1 C)
Heat index: 95.5 F (35.3 C):1
Dew Point: 73.0 F (22.8 C)
Relative Humidity: 61%
Pressure (altimeter): 30.04 in. Hg (1017 hPa)
Pressure tendency: 0.03 inches (1.1 hPa) lower than three hours ago
ob: TIST 171753Z 12015KT 10SM FEW030 31/23 A3004 RMK AO2 SLP173 60000 T03110228 10322 20283 58011
cycle: 18

Station Type Date Time Source
TIST TAF 2019/07/17 18:24 UTC NOAA

TAF TIST 171720Z 1718/1818 13017KT P6SM FEW020 SCT030
FM172300 09009KT P6SM VCSH SCT030 SCT060
FM181400 08013KT P6SM SCT025

Example: see airport list